createdAt,value
2022-09-06T00:01:39.410Z,0.68
2022-09-06T00:05:03.419Z,0.60
2022-09-06T00:08:27.578Z,0.75
2022-09-06T00:11:50.475Z,0.60
2022-09-06T00:15:14.457Z,0.70
2022-09-06T00:18:38.393Z,0.63
2022-09-06T00:22:02.417Z,0.60
2022-09-06T00:25:27.445Z,0.68
2022-09-06T00:28:51.420Z,0.70
2022-09-06T00:32:16.391Z,0.70
2022-09-06T00:35:41.410Z,1.00
2022-09-06T00:39:06.495Z,0.63
2022-09-06T00:42:30.431Z,0.80
2022-09-06T00:45:54.532Z,0.63
2022-09-06T00:49:32.394Z,0.60
2022-09-06T00:52:56.438Z,0.70
2022-09-06T00:56:14.974Z,0.60
2022-09-06T00:59:34.478Z,0.70
2022-09-06T01:02:58.390Z,0.95
2022-09-06T01:06:33.449Z,0.60
2022-09-06T01:10:18.407Z,0.77
2022-09-06T01:13:45.494Z,0.60
2022-09-06T01:17:18.425Z,0.60
2022-09-06T01:21:13.442Z,0.80
2022-09-06T01:25:08.449Z,0.60
2022-09-06T01:29:02.437Z,0.50
2022-09-06T01:32:56.425Z,0.60
2022-09-06T01:36:23.505Z,0.60
2022-09-06T01:39:49.513Z,0.60
2022-09-06T01:43:13.458Z,0.65
2022-09-06T01:46:59.450Z,0.60
2022-09-06T01:50:43.472Z,0.70
2022-09-06T01:54:37.491Z,0.60
2022-09-06T01:58:14.044Z,0.70
2022-09-06T02:01:38.591Z,0.70
2022-09-06T02:05:25.429Z,0.60
2022-09-06T02:08:59.480Z,0.73
2022-09-06T02:12:25.471Z,0.52
2022-09-06T02:15:52.487Z,0.63
2022-09-06T02:20:00.430Z,0.57
2022-09-06T02:23:25.515Z,0.60
2022-09-06T02:26:52.473Z,0.63
2022-09-06T02:30:16.512Z,0.73
2022-09-06T02:33:43.438Z,0.60
2022-09-06T02:37:07.539Z,0.50
2022-09-06T02:40:32.436Z,0.50
2022-09-06T02:43:58.487Z,0.85
2022-09-06T02:47:22.438Z,0.50
2022-09-06T02:50:46.521Z,0.60
2022-09-06T02:54:10.455Z,0.60
2022-09-06T02:57:34.530Z,0.50
2022-09-06T03:00:52.111Z,0.52
2022-09-06T03:04:10.491Z,0.70
2022-09-06T03:07:34.517Z,0.65
2022-09-06T03:11:04.579Z,0.50
2022-09-06T03:14:28.511Z,0.50
2022-09-06T03:17:53.521Z,0.50
2022-09-06T03:21:16.464Z,0.50
2022-09-06T03:24:40.527Z,0.70
2022-09-06T03:28:04.514Z,0.50
2022-09-06T03:31:28.535Z,0.50
2022-09-06T03:34:52.473Z,0.50
2022-09-06T03:38:15.486Z,0.40
2022-09-06T03:41:39.489Z,0.50
2022-09-06T03:45:03.526Z,0.50
2022-09-06T03:48:27.627Z,0.43
2022-09-06T03:51:51.505Z,0.50
2022-09-06T03:55:14.546Z,0.50
2022-09-06T03:58:39.464Z,0.50
2022-09-06T04:02:03.603Z,0.50
2022-09-06T04:05:27.497Z,0.60
2022-09-06T04:08:52.483Z,0.57
2022-09-06T04:12:17.571Z,0.45
2022-09-06T04:15:41.521Z,0.70
2022-09-06T04:19:07.575Z,0.70
2022-09-06T04:22:31.521Z,0.57
2022-09-06T04:25:55.558Z,0.70
2022-09-06T04:29:19.482Z,7.80
2022-09-06T04:32:44.538Z,0.65
2022-09-06T04:36:09.527Z,0.70
2022-09-06T04:39:33.599Z,0.60
2022-09-06T04:42:57.536Z,0.93
2022-09-06T04:46:36.535Z,0.70
2022-09-06T04:50:01.539Z,0.70
2022-09-06T04:53:25.565Z,0.70
2022-09-06T04:56:49.551Z,0.50
2022-09-06T05:00:06.163Z,0.60
2022-09-06T05:03:24.563Z,0.57
2022-09-06T05:06:49.508Z,1.20
2022-09-06T05:10:14.570Z,1.20
2022-09-06T05:13:37.549Z,0.82
2022-09-06T05:17:02.524Z,0.93
2022-09-06T05:20:27.497Z,1.00
2022-09-06T05:23:55.472Z,0.60
2022-09-06T05:27:22.502Z,2.50
2022-09-06T05:30:46.597Z,1.10
2022-09-06T05:34:10.554Z,0.90
2022-09-06T05:37:34.537Z,0.80
2022-09-06T05:40:58.554Z,1.10
2022-09-06T05:44:22.551Z,1.50
2022-09-06T05:47:46.552Z,1.70
2022-09-06T05:51:36.625Z,3.67
2022-09-06T05:55:00.539Z,1.40
2022-09-06T05:58:24.571Z,1.58
2022-09-06T06:01:48.575Z,4.50
2022-09-06T06:05:12.591Z,2.83
2022-09-06T06:08:36.552Z,1.70
2022-09-06T06:12:02.553Z,1.70
2022-09-06T06:15:26.593Z,2.00
2022-09-06T06:18:52.319Z,2.05
2022-09-06T06:22:16.543Z,2.42
2022-09-06T06:25:40.513Z,2.28
2022-09-06T06:29:06.612Z,3.40
2022-09-06T06:32:30.519Z,3.30
2022-09-06T06:35:54.571Z,3.20
2022-09-06T06:39:20.529Z,2.70
2022-09-06T06:42:43.563Z,3.17
2022-09-06T06:46:07.637Z,2.70
2022-09-06T06:49:31.578Z,2.67
2022-09-06T06:52:55.532Z,3.55
2022-09-06T06:56:38.622Z,3.47
2022-09-06T07:00:02.630Z,3.03
2022-09-06T07:03:23.119Z,3.40
2022-09-06T07:10:34.022Z,2.17
2022-09-06T07:13:58.610Z,1.98
2022-09-06T07:17:21.582Z,2.08
2022-09-06T07:24:29.588Z,21.00
2022-09-06T07:27:53.628Z,6.13
2022-09-06T07:35:01.633Z,1.90
2022-09-06T07:38:25.591Z,4.03
2022-09-06T07:41:49.586Z,3.25
2022-09-06T07:45:13.552Z,5.38
2022-09-06T07:48:29.658Z,3.72
2022-09-06T07:51:53.556Z,3.50
2022-09-06T07:55:17.614Z,4.60
2022-09-06T07:58:41.604Z,5.50
2022-09-06T08:02:04.659Z,4.95
2022-09-06T08:09:00.626Z,5.43
2022-09-06T08:12:24.541Z,5.43
2022-09-06T08:15:47.639Z,5.40
2022-09-06T08:19:16.596Z,14.73
2022-09-06T08:22:41.755Z,14.25
2022-09-06T08:26:12.632Z,10.25
2022-09-06T08:29:36.612Z,7.57
2022-09-06T08:33:00.581Z,7.88
2022-09-06T08:36:25.601Z,10.23
2022-09-06T08:39:49.683Z,22.45
2022-09-06T08:43:13.606Z,14.55
2022-09-06T08:46:51.647Z,13.65
2022-09-06T08:50:21.600Z,9.15
2022-09-06T08:53:45.582Z,10.15
2022-09-06T08:57:19.602Z,11.52
2022-09-06T09:00:42.604Z,15.35
2022-09-06T09:04:08.659Z,17.23
2022-09-06T09:07:55.631Z,14.57
2022-09-06T09:11:22.585Z,15.02
2022-09-06T09:14:51.617Z,11.18
2022-09-06T09:18:15.633Z,12.35
2022-09-06T09:21:40.671Z,16.48
2022-09-06T09:25:05.630Z,19.63
2022-09-06T09:28:32.661Z,20.33
2022-09-06T09:32:01.685Z,17.95
2022-09-06T09:35:46.616Z,13.43
2022-09-06T09:39:11.606Z,10.95
2022-09-06T09:42:53.661Z,11.07
2022-09-06T09:46:47.731Z,12.70
2022-09-06T09:50:12.598Z,13.98
2022-09-06T09:53:37.645Z,21.05
2022-09-06T09:57:11.720Z,16.80
2022-09-06T10:00:51.651Z,21.00
2022-09-06T10:08:10.646Z,16.48
2022-09-06T10:12:11.678Z,17.73
2022-09-06T10:15:53.689Z,19.85
2022-09-06T10:19:39.680Z,16.90
2022-09-06T10:23:06.673Z,16.15
2022-09-06T10:26:54.644Z,19.80
2022-09-06T10:30:24.653Z,14.70
2022-09-06T10:33:58.671Z,14.30
2022-09-06T10:40:48.640Z,13.27
2022-09-06T10:44:21.617Z,12.35
2022-09-06T10:51:18.657Z,11.52
2022-09-06T10:54:45.679Z,12.77
2022-09-06T11:01:48.768Z,12.27
2022-09-06T11:09:03.650Z,14.43
2022-09-06T11:12:29.652Z,14.13
2022-09-06T11:16:31.767Z,10.10
2022-09-06T11:20:01.653Z,11.95
2022-09-06T11:23:49.654Z,13.52
2022-09-06T11:27:34.653Z,11.27
2022-09-06T11:31:04.751Z,12.82
2022-09-06T11:34:51.633Z,11.52
2022-09-06T11:38:41.697Z,13.25
2022-09-06T11:42:05.643Z,13.63
2022-09-06T11:45:35.813Z,16.15
2022-09-06T11:49:14.676Z,18.55
2022-09-06T11:53:14.690Z,22.60
2022-09-06T11:56:47.638Z,21.83
2022-09-06T12:04:08.140Z,18.30
2022-09-06T12:07:26.269Z,19.73
2022-09-06T12:10:49.674Z,21.38
2022-09-06T12:14:17.645Z,29.30
2022-09-06T12:17:41.704Z,37.60
2022-09-06T12:21:07.661Z,35.40
2022-09-06T12:24:49.669Z,38.58
2022-09-06T12:28:14.640Z,50.08
2022-09-06T12:31:52.734Z,40.35
2022-09-06T12:39:32.750Z,22.80
2022-09-06T12:42:55.642Z,29.95
2022-09-06T12:46:21.713Z,35.60
2022-09-06T12:49:46.699Z,25.83
2022-09-06T12:53:15.779Z,31.35
2022-09-06T12:56:43.694Z,26.40
2022-09-06T13:00:09.825Z,27.45
2022-09-06T13:03:48.661Z,26.35
2022-09-06T13:07:12.728Z,24.40
2022-09-06T13:10:33.271Z,22.90
2022-09-06T13:13:59.851Z,18.48
2022-09-06T13:17:24.657Z,14.63
2022-09-06T13:20:48.723Z,12.90
2022-09-06T13:24:12.712Z,11.95
2022-09-06T13:27:53.651Z,10.02
2022-09-06T13:31:37.702Z,8.80
2022-09-06T13:35:05.710Z,11.43
2022-09-06T13:38:53.754Z,7.70
2022-09-06T13:42:46.649Z,8.00
2022-09-06T13:46:22.734Z,8.10
2022-09-06T13:49:47.694Z,8.50
2022-09-06T13:53:12.709Z,7.43
2022-09-06T13:56:36.712Z,10.43
2022-09-06T14:00:00.749Z,31.60
2022-09-06T14:03:30.794Z,24.48
2022-09-06T14:06:54.730Z,21.15
2022-09-06T14:10:19.765Z,20.58
2022-09-06T14:13:43.726Z,19.20
2022-09-06T14:17:07.717Z,16.60
2022-09-06T14:20:31.692Z,13.68
2022-09-06T14:23:55.653Z,8.93
2022-09-06T14:27:20.692Z,9.05
2022-09-06T14:30:45.723Z,10.52
2022-09-06T14:34:11.694Z,10.82
2022-09-06T14:37:35.753Z,9.68
2022-09-06T14:40:59.713Z,8.07
2022-09-06T14:44:24.748Z,9.20
2022-09-06T14:47:48.673Z,9.38
2022-09-06T14:51:12.719Z,8.82
2022-09-06T14:54:36.730Z,9.25
2022-09-06T14:58:02.720Z,7.53
2022-09-06T15:01:32.946Z,5.32
2022-09-06T15:04:58.683Z,5.50
2022-09-06T15:08:16.682Z,5.55
2022-09-06T15:11:48.710Z,5.88
2022-09-06T15:15:06.570Z,6.80
2022-09-06T15:18:24.733Z,6.68
2022-09-06T15:21:48.718Z,6.05
2022-09-06T15:25:12.720Z,5.63
2022-09-06T15:28:36.661Z,8.10
2022-09-06T15:31:59.753Z,9.68
2022-09-06T15:35:24.712Z,10.07
2022-09-06T15:38:57.788Z,20.17
2022-09-06T15:42:21.732Z,12.23
2022-09-06T15:45:45.825Z,15.95
2022-09-06T15:49:10.693Z,12.93
2022-09-06T15:52:34.754Z,16.48
2022-09-06T15:56:04.737Z,15.20
2022-09-06T15:59:28.747Z,17.00
2022-09-06T16:02:52.784Z,13.57
2022-09-06T16:09:46.730Z,10.93
2022-09-06T16:13:10.728Z,6.75
2022-09-06T16:16:34.822Z,5.95
2022-09-06T16:19:58.720Z,6.13
2022-09-06T16:23:21.764Z,5.63
2022-09-06T16:26:48.752Z,6.65
2022-09-06T16:30:12.778Z,8.25
2022-09-06T16:33:36.682Z,11.10
2022-09-06T16:37:00.770Z,8.50
2022-09-06T16:40:24.675Z,7.22
2022-09-06T16:43:48.770Z,6.93
2022-09-06T16:47:16.424Z,4.70
2022-09-06T16:50:40.778Z,4.07
2022-09-06T16:54:04.731Z,9.65
2022-09-06T16:57:29.714Z,70.18
2022-09-06T17:00:57.774Z,9.75
2022-09-06T17:04:21.763Z,4.63
2022-09-06T17:07:45.717Z,3.97
2022-09-06T17:11:09.719Z,4.47
2022-09-06T17:14:27.303Z,7.57
2022-09-06T17:17:45.715Z,3.40
2022-09-06T17:21:10.339Z,3.38
2022-09-06T17:24:27.774Z,4.50
2022-09-06T17:27:51.710Z,2.70
2022-09-06T17:31:20.983Z,3.08
2022-09-06T17:34:46.755Z,5.55
2022-09-06T17:38:12.779Z,4.30
2022-09-06T17:41:41.760Z,4.45
2022-09-06T17:45:06.729Z,3.08
2022-09-06T17:48:23.735Z,3.13
2022-09-06T17:51:47.868Z,3.58
2022-09-06T17:55:10.754Z,2.80
2022-09-06T17:58:34.777Z,10.77
2022-09-06T18:01:58.715Z,7.63
2022-09-06T18:05:22.864Z,5.90
2022-09-06T18:08:46.704Z,5.65
2022-09-06T18:12:10.767Z,4.63
2022-09-06T18:15:34.710Z,4.03
2022-09-06T18:18:58.756Z,13.25
2022-09-06T18:22:22.706Z,19.17
2022-09-06T18:25:46.761Z,19.13
2022-09-06T18:29:11.737Z,10.68
2022-09-06T18:32:36.778Z,5.90
2022-09-06T18:36:00.754Z,4.50
2022-09-06T18:39:26.811Z,5.45
2022-09-06T18:42:50.717Z,4.88
2022-09-06T18:46:26.762Z,4.82
2022-09-06T18:49:50.711Z,5.28
2022-09-06T18:53:14.807Z,5.70
2022-09-06T18:56:38.770Z,7.32
2022-09-06T19:00:02.798Z,7.05
2022-09-06T19:03:26.715Z,6.35
2022-09-06T19:06:51.762Z,6.45
2022-09-06T19:10:15.717Z,5.57
2022-09-06T19:13:40.782Z,6.30
2022-09-06T19:17:04.746Z,8.25
2022-09-06T19:20:28.802Z,6.03
2022-09-06T19:23:48.783Z,5.25
2022-09-06T19:27:13.727Z,5.13
2022-09-06T19:30:37.819Z,5.68
2022-09-06T19:34:02.739Z,4.25
2022-09-06T19:37:35.824Z,3.75
2022-09-06T19:40:59.737Z,2.30
2022-09-06T19:44:26.771Z,2.70
2022-09-06T19:47:50.770Z,2.45
2022-09-06T19:51:18.821Z,2.92
2022-09-06T19:54:43.764Z,3.42
2022-09-06T19:58:08.818Z,3.38
2022-09-06T20:01:33.797Z,3.72
2022-09-06T20:04:56.758Z,3.33
2022-09-06T20:08:21.768Z,3.63
2022-09-06T20:11:47.786Z,3.88
2022-09-06T20:15:11.810Z,4.25
2022-09-06T20:18:34.755Z,4.28
2022-09-06T20:21:58.780Z,3.72
2022-09-06T20:25:22.747Z,3.47
2022-09-06T20:28:47.851Z,3.47
2022-09-06T20:32:11.777Z,3.53
2022-09-06T20:35:35.858Z,3.10
2022-09-06T20:39:00.761Z,4.22
2022-09-06T20:42:25.842Z,4.97
2022-09-06T20:45:49.798Z,4.30
2022-09-06T20:49:15.789Z,4.60
2022-09-06T20:52:39.811Z,4.60
2022-09-06T20:56:18.790Z,3.95
2022-09-06T20:59:42.796Z,3.47
2022-09-06T21:03:06.791Z,3.90
2022-09-06T21:06:30.789Z,4.07
2022-09-06T21:09:54.776Z,4.15
2022-09-06T21:13:18.800Z,4.07
2022-09-06T21:16:44.820Z,3.67
2022-09-06T21:20:08.856Z,3.78
2022-09-06T21:23:26.482Z,4.05
2022-09-06T21:26:44.823Z,3.60
2022-09-06T21:30:08.976Z,3.13
2022-09-06T21:33:33.753Z,3.70
2022-09-06T21:36:57.851Z,2.65
2022-09-06T21:40:22.827Z,2.58
2022-09-06T21:43:46.840Z,2.20
2022-09-06T21:47:11.852Z,2.22
2022-09-06T21:50:35.772Z,2.00
2022-09-06T21:54:01.823Z,2.47
2022-09-06T21:57:25.762Z,1.90
2022-09-06T22:00:49.868Z,1.83
2022-09-06T22:04:13.787Z,2.40
2022-09-06T22:07:37.877Z,3.45
2022-09-06T22:11:01.778Z,4.75
2022-09-06T22:14:28.883Z,9.70
2022-09-06T22:17:52.821Z,4.70
2022-09-06T22:21:18.898Z,8.27
2022-09-06T22:24:37.631Z,8.15
2022-09-06T22:27:55.911Z,6.88
2022-09-06T22:31:20.874Z,7.20
2022-09-06T22:34:43.810Z,5.82
2022-09-06T22:38:07.867Z,5.90
2022-09-06T22:41:31.850Z,4.80
2022-09-06T22:44:55.857Z,3.65
2022-09-06T22:48:20.833Z,3.53
2022-09-06T22:51:44.782Z,3.25
2022-09-06T22:55:09.875Z,2.97
2022-09-06T22:58:34.883Z,2.40
2022-09-06T23:01:58.889Z,1.98
2022-09-06T23:05:22.841Z,2.38
2022-09-06T23:08:50.974Z,2.05
2022-09-06T23:12:14.827Z,2.15
2022-09-06T23:15:39.874Z,2.03
2022-09-06T23:19:03.874Z,2.33
2022-09-06T23:22:27.942Z,1.50
2022-09-06T23:25:55.865Z,1.20
2022-09-06T23:29:20.898Z,0.80
2022-09-06T23:32:43.840Z,0.85
2022-09-06T23:36:10.842Z,1.08
2022-09-06T23:39:33.900Z,0.98
2022-09-06T23:42:57.818Z,0.90
2022-09-06T23:46:20.949Z,1.00
2022-09-06T23:49:44.854Z,1.10
2022-09-06T23:53:07.903Z,0.80
2022-09-06T23:56:31.833Z,0.80
2022-09-06T23:59:56.869Z,0.80
